createdAt,value
2022-11-16T00:02:12.991Z,97639.34
2022-11-16T00:04:40.090Z,97616.13
2022-11-16T00:07:07.269Z,97624.22
2022-11-16T00:09:34.391Z,97631.50
2022-11-16T00:12:03.294Z,97630.16
2022-11-16T00:14:34.292Z,97630.69
2022-11-16T00:17:01.448Z,97628.81
2022-11-16T00:19:28.738Z,97624.47
2022-11-16T00:21:55.666Z,97611.00
2022-11-16T00:24:23.424Z,97586.78
2022-11-16T00:26:51.131Z,97582.19
2022-11-16T00:29:21.735Z,97566.31
2022-11-16T00:31:50.963Z,97557.97
2022-11-16T00:34:18.565Z,97557.44
2022-11-16T00:36:46.255Z,97570.06
2022-11-16T00:39:14.138Z,97582.97
2022-11-16T00:41:41.194Z,97596.19
2022-11-16T00:44:09.210Z,97602.66
2022-11-16T00:46:36.100Z,97608.31
2022-11-16T00:49:05.649Z,97615.03
2022-11-16T00:51:32.872Z,97614.50
2022-11-16T00:53:59.939Z,97607.50
2022-11-16T00:56:26.848Z,97616.63
2022-11-16T00:58:53.721Z,97626.06
2022-11-16T01:01:20.665Z,97622.84
2022-11-16T01:03:50.359Z,97630.66
2022-11-16T01:06:18.827Z,97626.38
2022-11-16T01:08:45.667Z,97623.66
2022-11-16T01:11:32.942Z,97623.09
2022-11-16T01:14:02.200Z,97628.50
2022-11-16T01:16:29.311Z,97627.97
2022-11-16T01:18:56.447Z,97629.56
2022-11-16T01:21:24.896Z,97631.44
2022-11-16T01:23:52.310Z,97639.25
2022-11-16T01:26:19.281Z,97639.00
2022-11-16T01:28:46.145Z,97636.28
2022-11-16T01:31:13.976Z,97628.22
2022-11-16T01:33:42.064Z,97628.75
2022-11-16T01:36:17.298Z,97640.34
2022-11-16T01:38:46.513Z,97636.84
2022-11-16T01:41:17.468Z,97645.16
2022-11-16T01:43:52.152Z,97636.28
2022-11-16T01:46:20.324Z,97642.47
2022-11-16T01:48:48.808Z,97658.63
2022-11-16T01:51:16.403Z,97651.63
2022-11-16T01:53:44.923Z,97653.78
2022-11-16T01:56:11.892Z,97657.53
2022-11-16T01:58:46.365Z,97661.31
2022-11-16T02:01:17.981Z,97648.66
2022-11-16T02:03:50.217Z,97645.72
2022-11-16T02:06:30.754Z,97645.72
2022-11-16T02:09:43.956Z,97644.06
2022-11-16T02:12:38.039Z,97650.00
2022-11-16T02:15:15.936Z,97643.53
2022-11-16T02:17:58.398Z,97634.88
2022-11-16T02:20:42.545Z,97628.72
2022-11-16T02:23:26.787Z,97627.09
2022-11-16T02:26:05.780Z,97627.88
2022-11-16T02:28:48.174Z,97626.28
2022-11-16T02:31:24.406Z,97621.72
2022-11-16T02:33:54.132Z,97627.88
2022-11-16T02:36:24.868Z,97622.50
2022-11-16T02:38:58.071Z,97628.97
2022-11-16T02:41:28.611Z,97631.09
2022-11-16T02:44:00.442Z,97645.38
2022-11-16T02:46:31.107Z,97638.38
2022-11-16T02:49:02.443Z,97638.34
2022-11-16T02:51:29.679Z,97646.16
2022-11-16T02:54:02.784Z,97647.72
2022-11-16T02:56:50.126Z,97649.38
2022-11-16T02:59:22.695Z,97652.59
2022-11-16T03:01:56.999Z,97658.81
2022-11-16T03:04:28.242Z,97658.56
2022-11-16T03:06:57.817Z,97660.44
2022-11-16T03:09:30.764Z,97665.81
2022-11-16T03:12:02.959Z,97668.75
2022-11-16T03:14:38.685Z,97666.31
2022-11-16T03:17:10.837Z,97671.47
2022-11-16T03:19:44.214Z,97675.75
2022-11-16T03:22:14.096Z,97675.75
2022-11-16T03:24:41.292Z,97677.41
2022-11-16T03:27:18.511Z,97675.75
2022-11-16T03:29:54.367Z,97676.84
2022-11-16T03:32:29.872Z,97675.47
2022-11-16T03:35:00.591Z,97683.31
2022-11-16T03:37:30.097Z,97684.91
2022-11-16T03:40:01.107Z,97686.25
2022-11-16T03:42:31.807Z,97686.25
2022-11-16T03:44:59.199Z,97694.91
2022-11-16T03:47:27.502Z,97689.50
2022-11-16T03:49:54.425Z,97691.38
2022-11-16T03:52:23.730Z,97693.25
2022-11-16T03:54:51.093Z,97698.63
2022-11-16T03:57:18.686Z,97696.19
2022-11-16T03:59:51.425Z,97699.97
2022-11-16T04:02:18.613Z,97705.09
2022-11-16T04:05:05.952Z,97711.25
2022-11-16T04:07:51.282Z,97715.84
2022-11-16T04:10:36.957Z,97719.59
2022-11-16T04:13:22.871Z,97719.31
2022-11-16T04:16:08.755Z,97708.53
2022-11-16T04:18:54.510Z,97704.75
2022-11-16T04:21:44.451Z,97710.13
2022-11-16T04:24:14.674Z,97706.66
2022-11-16T04:27:03.966Z,97711.22
2022-11-16T04:29:32.016Z,97706.09
2022-11-16T04:32:17.402Z,97707.41
2022-11-16T04:35:02.494Z,97706.91
2022-11-16T04:37:49.048Z,97711.22
2022-11-16T04:40:22.956Z,97722.81
2022-11-16T04:42:53.314Z,97716.06
2022-11-16T04:45:39.644Z,97719.53
2022-11-16T04:48:08.202Z,97721.44
2022-11-16T04:50:36.711Z,97716.06
2022-11-16T04:53:06.056Z,97713.38
2022-11-16T04:55:39.806Z,97702.59
2022-11-16T04:58:07.769Z,97706.91
2022-11-16T05:00:34.620Z,97703.38
2022-11-16T05:03:03.463Z,97703.97
2022-11-16T05:05:30.388Z,97709.59
2022-11-16T05:07:58.934Z,97703.66
2022-11-16T05:10:30.488Z,97694.28
2022-11-16T05:12:57.841Z,97696.13
2022-11-16T05:15:25.465Z,97695.06
2022-11-16T05:17:55.281Z,97687.50
2022-11-16T05:20:43.102Z,97694.53
2022-11-16T05:23:30.006Z,97691.84
2022-11-16T05:26:05.732Z,97693.41
2022-11-16T05:28:33.040Z,97698.25
2022-11-16T05:31:02.260Z,97697.72
2022-11-16T05:33:31.456Z,97704.47
2022-11-16T05:36:00.017Z,97700.41
2022-11-16T05:38:26.875Z,97704.47
2022-11-16T05:40:57.119Z,97708.25
2022-11-16T05:43:34.302Z,97704.97
2022-11-16T05:46:10.034Z,97711.72
2022-11-16T05:48:37.926Z,97713.91
2022-11-16T05:51:06.323Z,97715.84
2022-11-16T05:53:34.614Z,97714.75
2022-11-16T05:56:01.710Z,97716.13
2022-11-16T05:58:32.308Z,97703.22
2022-11-16T06:00:59.946Z,97705.38
2022-11-16T06:03:28.483Z,97703.00
2022-11-16T06:05:55.991Z,97706.22
2022-11-16T06:08:25.210Z,97709.50
2022-11-16T06:10:53.625Z,97711.69
2022-11-16T06:13:20.634Z,97712.22
2022-11-16T06:15:50.777Z,97710.88
2022-11-16T06:18:19.189Z,97706.84
2022-11-16T06:20:47.715Z,97708.78
2022-11-16T06:23:14.622Z,97718.47
2022-11-16T06:25:41.508Z,97724.16
2022-11-16T06:28:09.278Z,97722.03
2022-11-16T06:30:38.323Z,97722.84
2022-11-16T06:33:07.502Z,97723.13
2022-11-16T06:35:34.350Z,97725.56
2022-11-16T06:38:02.814Z,97719.91
2022-11-16T06:40:29.725Z,97725.88
2022-11-16T06:42:57.327Z,97734.78
2022-11-16T06:45:26.058Z,97740.16
2022-11-16T06:47:55.846Z,97744.72
2022-11-16T06:50:24.653Z,97745.56
2022-11-16T06:52:52.194Z,97742.25
2022-11-16T06:55:19.779Z,97740.38
2022-11-16T06:57:47.841Z,97741.22
2022-11-16T07:00:16.570Z,97738.53
2022-11-16T07:02:43.784Z,97741.22
2022-11-16T07:05:14.215Z,97748.72
2022-11-16T07:07:43.443Z,97741.72
2022-11-16T07:10:10.639Z,97741.97
2022-11-16T07:12:37.456Z,97741.41
2022-11-16T07:15:06.486Z,97743.56
2022-11-16T07:17:35.890Z,97750.81
2022-11-16T07:20:03.513Z,97743.00
2022-11-16T07:22:30.357Z,97753.78
2022-11-16T07:24:59.587Z,97753.50
2022-11-16T07:27:27.989Z,97763.44
2022-11-16T07:29:55.196Z,97764.28
2022-11-16T07:32:43.085Z,97772.09
2022-11-16T07:35:32.512Z,97764.28
2022-11-16T07:38:01.173Z,97768.56
2022-11-16T07:40:29.440Z,97767.78
2022-11-16T07:42:57.691Z,97762.91
2022-11-16T07:45:43.007Z,97769.13
2022-11-16T07:48:10.817Z,97776.13
2022-11-16T07:51:00.449Z,97776.13
2022-11-16T07:53:29.659Z,97775.63
2022-11-16T07:55:58.196Z,97779.66
2022-11-16T07:58:28.079Z,97771.34
2022-11-16T08:01:04.883Z,97765.41
2022-11-16T08:03:33.310Z,97769.75
2022-11-16T08:06:01.187Z,97764.06
2022-11-16T08:08:28.731Z,97764.88
2022-11-16T08:11:00.706Z,97759.25
2022-11-16T08:13:28.016Z,97768.72
2022-11-16T08:15:54.880Z,97756.06
2022-11-16T08:18:22.352Z,97756.88
2022-11-16T08:20:49.190Z,97756.34
2022-11-16T08:23:16.448Z,97759.63
2022-11-16T08:25:43.213Z,97755.28
2022-11-16T08:28:11.651Z,97764.72
2022-11-16T08:30:38.939Z,97756.13
2022-11-16T08:33:08.048Z,97754.25
2022-11-16T08:35:35.008Z,97746.97
2022-11-16T08:38:02.682Z,97749.41
2022-11-16T08:40:29.714Z,97750.22
2022-11-16T08:42:57.171Z,97747.28
2022-11-16T08:45:25.524Z,97756.44
2022-11-16T08:48:03.192Z,97747.00
2022-11-16T08:50:44.210Z,97754.84
2022-11-16T08:53:19.028Z,97757.81
2022-11-16T08:55:45.873Z,97762.13
2022-11-16T08:58:12.787Z,97765.38
2022-11-16T09:00:41.750Z,97774.25
2022-11-16T09:03:08.533Z,97763.22
2022-11-16T09:05:35.333Z,97772.13
2022-11-16T09:08:02.189Z,97772.94
2022-11-16T09:10:29.084Z,97769.97
2022-11-16T09:12:55.888Z,97775.38
2022-11-16T09:15:22.799Z,97767.03
2022-11-16T09:17:54.837Z,97771.31
2022-11-16T09:20:21.761Z,97772.16
2022-11-16T09:22:48.617Z,97766.75
2022-11-16T09:25:15.871Z,97765.69
2022-11-16T09:27:43.007Z,97758.41
2022-11-16T09:30:11.746Z,97756.53
2022-11-16T09:32:38.660Z,97757.06
2022-11-16T09:35:07.656Z,97756.81
2022-11-16T09:37:34.473Z,97766.78
2022-11-16T09:40:01.251Z,97763.56
2022-11-16T09:42:47.477Z,97758.44
2022-11-16T09:45:20.508Z,97766.00
2022-11-16T09:47:50.028Z,97760.59
2022-11-16T09:50:32.182Z,97757.34
2022-11-16T09:53:13.557Z,97757.34
2022-11-16T09:55:47.473Z,97756.53
2022-11-16T09:58:19.907Z,97752.47
2022-11-16T10:00:54.795Z,97759.50
2022-11-16T10:03:21.793Z,97755.47
2022-11-16T10:05:59.321Z,97748.97
2022-11-16T10:08:39.044Z,97749.50
2022-11-16T10:11:23.163Z,97743.59
2022-11-16T10:14:03.819Z,97735.25
2022-11-16T10:16:37.716Z,97741.44
2022-11-16T10:19:18.091Z,97735.00
2022-11-16T10:21:53.273Z,97743.88
2022-11-16T10:24:35.867Z,97739.31
2022-11-16T10:27:22.494Z,97731.22
2022-11-16T10:29:59.546Z,97729.06
2022-11-16T10:32:29.573Z,97720.16
2022-11-16T10:35:01.739Z,97724.22
2022-11-16T10:37:36.568Z,97721.53
2022-11-16T10:40:17.239Z,97721.00
2022-11-16T10:42:46.861Z,97724.75
2022-11-16T10:45:18.502Z,97725.56
2022-11-16T10:47:52.116Z,97724.75
2022-11-16T10:50:39.396Z,97721.81
2022-11-16T10:53:12.401Z,97717.22
2022-11-16T10:55:39.251Z,97716.97
2022-11-16T10:58:06.656Z,97711.28
2022-11-16T11:00:41.086Z,97709.13
2022-11-16T11:03:10.739Z,97702.94
2022-11-16T11:05:48.158Z,97689.69
2022-11-16T11:08:26.610Z,97688.09
2022-11-16T11:11:03.242Z,97694.03
2022-11-16T11:13:30.106Z,97689.69
2022-11-16T11:16:15.731Z,97692.69
2022-11-16T11:18:42.909Z,97675.44
2022-11-16T11:21:17.201Z,97673.78
2022-11-16T11:23:47.943Z,97678.38
2022-11-16T11:26:35.823Z,97678.38
2022-11-16T11:29:09.673Z,97674.84
2022-11-16T11:31:42.832Z,97669.22
2022-11-16T11:34:17.339Z,97667.03
2022-11-16T11:36:48.390Z,97665.69
2022-11-16T11:39:36.487Z,97654.91
2022-11-16T11:42:21.237Z,97648.72
2022-11-16T11:44:54.843Z,97653.28
2022-11-16T11:47:57.413Z,97648.97
2022-11-16T11:50:35.799Z,97652.19
2022-11-16T11:53:07.474Z,97652.72
2022-11-16T11:55:35.740Z,97647.31
2022-11-16T11:58:04.451Z,97654.31
2022-11-16T12:00:41.978Z,97641.94
2022-11-16T12:03:56.415Z,97638.16
2022-11-16T12:06:31.442Z,97635.75
2022-11-16T12:09:21.234Z,97630.34
2022-11-16T12:12:01.948Z,97626.59
2022-11-16T12:14:46.051Z,97621.97
2022-11-16T12:17:21.326Z,97615.25
2022-11-16T12:20:03.213Z,97617.16
2022-11-16T12:22:47.588Z,97618.19
2022-11-16T12:25:24.917Z,97614.97
2022-11-16T12:28:11.572Z,97617.41
2022-11-16T12:30:51.787Z,97615.22
2022-11-16T12:33:27.207Z,97615.22
2022-11-16T12:36:02.451Z,97610.38
2022-11-16T12:38:59.921Z,97600.66
2022-11-16T12:41:53.601Z,97600.13
2022-11-16T12:44:30.049Z,97600.94
2022-11-16T12:47:08.528Z,97599.06
2022-11-16T12:49:56.201Z,97597.44
2022-11-16T12:52:43.093Z,97597.72
2022-11-16T12:55:26.752Z,97596.94
2022-11-16T12:58:07.592Z,97600.66
2022-11-16T13:00:48.524Z,97597.72
2022-11-16T13:03:20.551Z,97596.09
2022-11-16T13:05:57.890Z,97589.88
2022-11-16T13:08:38.028Z,97586.16
2022-11-16T13:11:11.919Z,97585.31
2022-11-16T13:13:40.754Z,97570.50
2022-11-16T13:16:10.804Z,97567.53
2022-11-16T13:18:41.645Z,97558.09
2022-11-16T13:21:20.669Z,97555.41
2022-11-16T13:24:00.951Z,97555.13
2022-11-16T13:26:33.917Z,97551.91
2022-11-16T13:29:09.361Z,97548.38
2022-11-16T13:31:43.874Z,97552.72
2022-11-16T13:34:15.887Z,97552.72
2022-11-16T13:36:47.631Z,97543.03
2022-11-16T13:39:21.992Z,97551.63
2022-11-16T13:41:52.054Z,97556.50
2022-11-16T13:44:28.944Z,97556.25
2022-11-16T13:47:04.179Z,97543.28
2022-11-16T13:49:35.329Z,97541.41
2022-11-16T13:52:21.925Z,97533.59
2022-11-16T13:54:53.131Z,97538.19
2022-11-16T13:57:24.222Z,97534.41
2022-11-16T14:00:09.163Z,97526.59
2022-11-16T14:02:38.910Z,97520.38
2022-11-16T14:05:14.799Z,97517.69
2022-11-16T14:07:47.374Z,97528.47
2022-11-16T14:11:02.147Z,97531.97
2022-11-16T14:13:39.862Z,97526.31
2022-11-16T14:16:43.784Z,97515.53
2022-11-16T14:19:51.934Z,97499.38
2022-11-16T14:22:35.462Z,97495.84
2022-11-16T14:25:09.675Z,97497.50
2022-11-16T14:27:43.117Z,97493.72
2022-11-16T14:30:17.641Z,97495.31
2022-11-16T14:32:47.174Z,97492.38
2022-11-16T14:35:29.963Z,97486.16
2022-11-16T14:38:00.957Z,97485.88
2022-11-16T14:40:27.915Z,97477.25
2022-11-16T14:45:49.131Z,97469.16
2022-11-16T14:48:18.980Z,97463.00
2022-11-16T14:50:58.836Z,97463.78
2022-11-16T14:53:28.440Z,97468.09
2022-11-16T14:56:07.134Z,97467.81
2022-11-16T14:58:33.907Z,97467.56
2022-11-16T15:01:03.556Z,97468.63
2022-11-16T15:03:34.456Z,97455.16
2022-11-16T15:06:04.169Z,97463.25
2022-11-16T15:08:35.495Z,97447.06
2022-11-16T15:11:02.764Z,97446.25
2022-11-16T15:13:29.593Z,97440.59
2022-11-16T15:16:10.673Z,97441.41
2022-11-16T15:18:37.452Z,97440.06
2022-11-16T15:21:04.283Z,97437.38
2022-11-16T15:23:32.767Z,97431.97
2022-11-16T15:26:02.284Z,97436.53
2022-11-16T15:28:31.836Z,97427.38
2022-11-16T15:31:01.715Z,97427.63
2022-11-16T15:33:31.549Z,97421.97
2022-11-16T15:35:59.005Z,97426.59
2022-11-16T15:38:28.191Z,97425.50
2022-11-16T15:40:58.642Z,97408.50
2022-11-16T15:43:28.754Z,97404.75
2022-11-16T15:45:56.352Z,97405.81
2022-11-16T15:48:25.364Z,97400.13
2022-11-16T15:51:02.983Z,97400.13
2022-11-16T15:53:35.007Z,97398.53
2022-11-16T15:56:05.920Z,97390.44
2022-11-16T15:58:37.608Z,97383.97
2022-11-16T16:01:04.996Z,97385.88
2022-11-16T16:03:34.878Z,97393.97
2022-11-16T16:06:03.088Z,97390.16
2022-11-16T16:08:32.666Z,97396.66
2022-11-16T16:11:01.838Z,97403.91
2022-11-16T16:13:32.577Z,97399.34
2022-11-16T16:16:36.249Z,97391.78
2022-11-16T16:19:09.771Z,97386.66
2022-11-16T16:21:42.642Z,97391.25
2022-11-16T16:24:31.020Z,97396.91
2022-11-16T16:26:59.246Z,97393.13
2022-11-16T16:29:27.022Z,97396.91
2022-11-16T16:31:54.039Z,97398.78
2022-11-16T16:34:21.139Z,97396.09
2022-11-16T16:36:47.970Z,97386.94
2022-11-16T16:39:14.721Z,97384.22
2022-11-16T16:41:42.044Z,97369.97
2022-11-16T16:44:15.008Z,97369.97
2022-11-16T16:46:42.183Z,97370.47
2022-11-16T16:49:09.019Z,97357.81
2022-11-16T16:51:35.885Z,97361.84
2022-11-16T16:54:02.670Z,97360.50
2022-11-16T16:56:29.557Z,97343.22
2022-11-16T16:58:56.423Z,97342.94
2022-11-16T17:01:26.558Z,97337.06
2022-11-16T17:03:53.482Z,97320.59
2022-11-16T17:06:20.453Z,97321.13
2022-11-16T17:08:47.343Z,97323.53
2022-11-16T17:11:17.937Z,97316.56
2022-11-16T17:13:44.809Z,97319.25
2022-11-16T17:16:13.120Z,97312.75
2022-11-16T17:18:41.310Z,97306.56
2022-11-16T17:21:09.357Z,97303.56
2022-11-16T17:23:37.388Z,97305.22
2022-11-16T17:26:05.605Z,97296.03
2022-11-16T17:28:32.874Z,97290.88
2022-11-16T17:31:03.206Z,97281.16
2022-11-16T17:33:33.635Z,97286.81
2022-11-16T17:36:03.822Z,97284.63
2022-11-16T17:38:31.223Z,97282.47
2022-11-16T17:41:04.029Z,97276.81
2022-11-16T17:43:31.033Z,97281.13
2022-11-16T17:46:03.276Z,97269.25
2022-11-16T17:48:30.152Z,97255.47
2022-11-16T17:50:57.012Z,97247.66
2022-11-16T17:53:29.799Z,97251.97
2022-11-16T17:55:59.468Z,97238.75
2022-11-16T17:58:27.346Z,97236.84
2022-11-16T18:00:54.412Z,97238.47
2022-11-16T18:03:24.025Z,97254.13
2022-11-16T18:05:50.998Z,97269.00
2022-11-16T18:08:17.864Z,97273.31
2022-11-16T18:10:46.082Z,97281.41
2022-11-16T18:13:12.893Z,97287.06
2022-11-16T18:15:42.493Z,97284.38
2022-11-16T18:18:09.455Z,97277.09
2022-11-16T18:20:37.633Z,97257.66
2022-11-16T18:23:04.711Z,97249.84
2022-11-16T18:25:34.688Z,97247.72
2022-11-16T18:28:02.885Z,97241.50
2022-11-16T18:30:29.691Z,97245.03
2022-11-16T18:32:56.494Z,97240.16
2022-11-16T18:35:23.307Z,97235.03
2022-11-16T18:37:50.157Z,97230.44
2022-11-16T18:40:18.051Z,97236.63
2022-11-16T18:42:45.049Z,97245.81
2022-11-16T18:45:13.875Z,97249.34
2022-11-16T18:47:40.723Z,97239.63
2022-11-16T18:50:16.522Z,97244.50
2022-11-16T18:52:46.079Z,97243.69
2022-11-16T18:55:12.867Z,97245.06
2022-11-16T18:57:39.705Z,97243.72
2022-11-16T19:00:09.963Z,97250.22
2022-11-16T19:02:38.824Z,97248.56
2022-11-16T19:05:07.547Z,97249.66
2022-11-16T19:07:34.438Z,97251.25
2022-11-16T19:10:01.330Z,97256.66
2022-11-16T19:12:28.451Z,97255.06
2022-11-16T19:14:55.237Z,97254.50
2022-11-16T19:17:24.517Z,97250.19
2022-11-16T19:19:52.672Z,97256.69
2022-11-16T19:22:20.510Z,97247.00
2022-11-16T19:24:47.365Z,97251.56
2022-11-16T19:27:14.172Z,97244.84
2022-11-16T19:29:40.936Z,97244.28
2022-11-16T19:32:07.771Z,97241.06
2022-11-16T19:34:34.611Z,97244.88
2022-11-16T19:37:02.837Z,97241.63
2022-11-16T19:39:29.645Z,97244.59
2022-11-16T19:41:56.462Z,97236.78
2022-11-16T19:44:23.354Z,97236.25
2022-11-16T19:46:50.178Z,97227.34
2022-11-16T19:49:20.131Z,97230.31
2022-11-16T19:51:47.885Z,97223.31
2022-11-16T19:54:16.043Z,97229.78
2022-11-16T19:56:43.234Z,97219.28
2022-11-16T19:59:10.358Z,97218.19
2022-11-16T20:01:37.513Z,97220.66
2022-11-16T20:04:05.516Z,97215.25
2022-11-16T20:06:34.935Z,97213.66
2022-11-16T20:09:08.755Z,97211.75
2022-11-16T20:11:39.138Z,97200.19
2022-11-16T20:14:08.068Z,97203.94
2022-11-16T20:16:39.069Z,97207.72
2022-11-16T20:19:06.574Z,97206.91
2022-11-16T20:21:34.990Z,97203.72
2022-11-16T20:24:06.711Z,97215.84
2022-11-16T20:26:35.286Z,97206.66
2022-11-16T20:29:04.134Z,97210.47
2022-11-16T20:31:32.821Z,97204.25
2022-11-16T20:34:01.655Z,97199.69
2022-11-16T20:36:30.079Z,97184.88
2022-11-16T20:38:57.870Z,97179.22
2022-11-16T20:41:26.358Z,97173.28
2022-11-16T20:43:54.401Z,97162.50
2022-11-16T20:46:24.896Z,97166.00
2022-11-16T20:48:51.905Z,97161.66
2022-11-16T20:51:20.303Z,97156.59
2022-11-16T20:53:48.619Z,97149.81
2022-11-16T20:56:17.739Z,97143.66
2022-11-16T20:58:45.359Z,97134.75
2022-11-16T21:01:14.182Z,97138.25
2022-11-16T21:03:44.436Z,97131.28
2022-11-16T21:06:11.978Z,97131.28
2022-11-16T21:08:40.039Z,97123.47
2022-11-16T21:11:11.054Z,97118.84
2022-11-16T21:13:56.541Z,97123.47
2022-11-16T21:16:23.404Z,97122.13
2022-11-16T21:18:51.550Z,97115.91
2022-11-16T21:21:18.470Z,97104.88
2022-11-16T21:23:51.353Z,97091.41
2022-11-16T21:26:19.971Z,97093.28
2022-11-16T21:28:47.067Z,97082.78
2022-11-16T21:31:15.629Z,97090.84
2022-11-16T21:33:43.291Z,97086.28
2022-11-16T21:36:13.347Z,97083.59
2022-11-16T21:38:40.437Z,97078.47
2022-11-16T21:41:07.857Z,97069.56
2022-11-16T21:43:36.447Z,97064.50
2022-11-16T21:46:05.535Z,97051.53
2022-11-16T21:48:33.231Z,97047.50
2022-11-16T21:51:01.021Z,97048.31
2022-11-16T21:53:29.299Z,97044.81
2022-11-16T21:55:56.172Z,97032.44
2022-11-16T21:58:23.074Z,97020.84
2022-11-16T22:00:50.170Z,97016.53
2022-11-16T22:03:16.928Z,97021.13
2022-11-16T22:06:02.695Z,97019.22
2022-11-16T22:08:32.328Z,97018.41
2022-11-16T22:10:59.127Z,97011.16
2022-11-16T22:13:25.943Z,96999.56
2022-11-16T22:15:52.797Z,96991.75
2022-11-16T22:18:19.597Z,96988.28
2022-11-16T22:20:47.894Z,96975.31
2022-11-16T22:23:18.656Z,96972.91
2022-11-16T22:25:50.802Z,96975.09
2022-11-16T22:28:21.486Z,96976.69
2022-11-16T22:30:51.639Z,96976.69
2022-11-16T22:33:19.284Z,96979.38
2022-11-16T22:35:47.066Z,96976.13
2022-11-16T22:38:13.839Z,96976.13
2022-11-16T22:40:40.606Z,96977.78
2022-11-16T22:43:08.769Z,96969.94
2022-11-16T22:45:35.510Z,96957.28
2022-11-16T22:48:02.335Z,96938.44
2022-11-16T22:50:29.125Z,96936.78
2022-11-16T22:52:58.579Z,96936.56
2022-11-16T22:55:25.402Z,96929.00
2022-11-16T22:57:52.274Z,96922.53
2022-11-16T23:00:21.111Z,96909.84
2022-11-16T23:02:47.974Z,96902.34
2022-11-16T23:05:14.938Z,96890.22
2022-11-16T23:07:43.890Z,96884.28
2022-11-16T23:10:10.879Z,96873.25
2022-11-16T23:12:56.134Z,96872.72
2022-11-16T23:15:48.906Z,96871.91
2022-11-16T23:18:15.833Z,96863.84
2022-11-16T23:21:01.032Z,96870.03
2022-11-16T23:23:46.344Z,96853.34
2022-11-16T23:26:38.486Z,96846.63
2022-11-16T23:29:07.985Z,96846.63
2022-11-16T23:31:36.372Z,96833.16
2022-11-16T23:34:03.616Z,96835.03
2022-11-16T23:36:30.490Z,96821.56
2022-11-16T23:38:57.317Z,96824.28
2022-11-16T23:41:42.631Z,96816.19
2022-11-16T23:44:09.481Z,96814.31
2022-11-16T23:46:37.711Z,96803.53
2022-11-16T23:49:04.610Z,96793.59
2022-11-16T23:51:31.418Z,96790.06
2022-11-16T23:53:58.357Z,96780.13
2022-11-16T23:56:25.220Z,96772.03
2022-11-16T23:58:57.304Z,96769.34
